createdAt,value
2018-08-11T00:02:32.398Z,54.71
2018-08-11T00:05:57.116Z,57.32
2018-08-11T00:09:21.804Z,59.72
2018-08-11T00:12:46.502Z,63.22
2018-08-11T00:16:11.245Z,65.88
2018-08-11T00:19:35.933Z,61.41
2018-08-11T00:23:00.689Z,60.62
2018-08-11T00:26:25.313Z,62.32
2018-08-11T00:29:49.986Z,63.93
2018-08-11T00:33:14.796Z,58.63
2018-08-11T00:36:39.514Z,55.22
2018-08-11T00:40:05.629Z,57.73
2018-08-11T00:43:30.436Z,56.86
2018-08-11T00:46:55.117Z,60.23
2018-08-11T00:50:23.039Z,60.72
2018-08-11T00:53:47.649Z,63.14
2018-08-11T00:57:12.457Z,63.71
2018-08-11T01:00:37.112Z,64.46
2018-08-11T01:04:01.759Z,62.15
2018-08-11T01:07:26.446Z,62.39
2018-08-11T01:10:51.197Z,62.60
2018-08-11T01:14:15.965Z,65.58
2018-08-11T01:17:40.651Z,63.15
2018-08-11T01:21:05.369Z,60.38
2018-08-11T01:24:29.992Z,64.20
2018-08-11T01:27:54.628Z,63.20
2018-08-11T01:31:19.292Z,58.92
2018-08-11T01:34:43.932Z,61.98
2018-08-11T01:38:08.692Z,61.62
2018-08-11T01:41:33.333Z,65.09
2018-08-11T01:44:58.015Z,62.52
2018-08-11T01:48:22.658Z,61.41
2018-08-11T01:51:47.337Z,61.58
2018-08-11T01:55:14.173Z,62.22
2018-08-11T01:58:38.917Z,62.04
2018-08-11T02:02:03.598Z,62.84
2018-08-11T02:05:28.336Z,60.76
2018-08-11T02:08:53.012Z,57.43
2018-08-11T02:12:17.692Z,57.98
2018-08-11T02:15:42.330Z,58.88
2018-08-11T02:19:07.038Z,57.18
2018-08-11T02:22:31.670Z,61.76
2018-08-11T02:25:56.400Z,59.99
2018-08-11T02:29:21.096Z,63.27
2018-08-11T02:32:45.738Z,64.52
2018-08-11T02:36:10.465Z,58.37
2018-08-11T02:39:35.120Z,57.96
2018-08-11T02:42:59.743Z,57.60
2018-08-11T02:46:24.423Z,55.11
2018-08-11T02:49:49.063Z,55.20
2018-08-11T02:53:13.704Z,60.20
2018-08-11T02:56:38.314Z,60.09
2018-08-11T03:00:02.933Z,55.80
2018-08-11T03:03:27.622Z,57.61
2018-08-11T03:06:53.210Z,62.48
2018-08-11T03:10:17.866Z,62.83
2018-08-11T03:13:42.500Z,59.36
2018-08-11T03:17:07.150Z,60.94
2018-08-11T03:20:31.786Z,64.67
2018-08-11T03:23:56.471Z,65.95
2018-08-11T03:27:21.171Z,65.70
2018-08-11T03:30:45.784Z,66.54
2018-08-11T03:34:10.464Z,60.90
2018-08-11T03:37:35.137Z,66.28
2018-08-11T03:40:59.813Z,67.53
2018-08-11T03:44:24.493Z,65.60
2018-08-11T03:47:49.122Z,66.44
2018-08-11T03:51:13.787Z,66.04
2018-08-11T03:54:38.441Z,64.55
2018-08-11T03:58:03.133Z,62.55
2018-08-11T04:01:27.805Z,68.00
2018-08-11T04:04:52.418Z,66.47
2018-08-11T04:08:17.060Z,67.59
2018-08-11T04:11:41.745Z,68.69
2018-08-11T04:15:06.767Z,65.89
2018-08-11T04:19:55.845Z,66.07
2018-08-11T04:23:20.527Z,66.50
2018-08-11T04:26:45.211Z,66.67
2018-08-11T04:30:11.290Z,62.52
2018-08-11T04:33:35.941Z,65.46
2018-08-11T04:37:00.646Z,67.08
2018-08-11T04:40:25.404Z,68.28
2018-08-11T04:43:50.108Z,66.14
2018-08-11T04:47:14.856Z,66.80
2018-08-11T04:50:39.577Z,67.19
2018-08-11T04:54:04.362Z,68.05
2018-08-11T04:57:29.014Z,66.51
2018-08-11T05:00:53.727Z,65.38
2018-08-11T05:04:18.416Z,62.64
2018-08-11T05:07:43.064Z,67.82
2018-08-11T05:11:07.706Z,67.20
2018-08-11T05:15:56.834Z,65.97
2018-08-11T05:19:21.506Z,66.12
2018-08-11T05:22:46.166Z,67.28
2018-08-11T05:26:10.891Z,66.42
2018-08-11T05:29:35.492Z,67.02
2018-08-11T05:33:00.200Z,67.22
2018-08-11T05:36:24.832Z,66.89
2018-08-11T05:39:50.062Z,66.15
2018-08-11T05:43:14.722Z,68.29
2018-08-11T05:46:39.668Z,63.44
2018-08-11T05:50:04.699Z,66.99
2018-08-11T05:53:29.422Z,63.18
2018-08-11T05:56:54.146Z,66.90
2018-08-11T06:00:19.382Z,65.66
2018-08-11T06:03:44.117Z,67.41
2018-08-11T06:07:08.884Z,64.27
2018-08-11T06:10:33.643Z,64.33
2018-08-11T06:13:58.212Z,63.73
2018-08-11T06:17:22.925Z,63.06
2018-08-11T06:20:47.596Z,62.45
2018-08-11T06:24:12.437Z,61.26
2018-08-11T06:27:37.153Z,59.15
2018-08-11T06:31:01.880Z,58.89
2018-08-11T06:34:26.665Z,57.88
2018-08-11T06:37:51.509Z,55.98
2018-08-11T06:41:16.210Z,54.93
2018-08-11T06:44:40.963Z,53.54
2018-08-11T06:48:05.936Z,54.93
2018-08-11T06:51:30.594Z,53.65
2018-08-11T06:54:55.307Z,54.03
2018-08-11T06:58:20.028Z,53.32
2018-08-11T07:01:44.770Z,52.81
2018-08-11T07:05:09.502Z,54.06
2018-08-11T07:08:34.230Z,52.81
2018-08-11T07:11:59.013Z,52.27
2018-08-11T07:15:23.742Z,52.08
2018-08-11T07:18:48.441Z,51.04
2018-08-11T07:22:13.195Z,50.61
2018-08-11T07:25:37.962Z,49.49
2018-08-11T07:29:02.691Z,48.30
2018-08-11T07:32:27.367Z,48.77
2018-08-11T07:35:52.193Z,46.05
2018-08-11T07:39:17.004Z,47.81
2018-08-11T07:42:41.697Z,48.41
2018-08-11T07:46:06.404Z,47.22
2018-08-11T07:49:31.431Z,48.05
2018-08-11T07:52:56.230Z,49.48
2018-08-11T07:56:21.076Z,48.87
2018-08-11T07:59:45.805Z,46.30
2018-08-11T08:03:10.582Z,45.90
2018-08-11T08:06:35.305Z,43.78
2018-08-11T08:10:00.019Z,42.25
2018-08-11T08:13:24.683Z,42.79
2018-08-11T08:16:49.340Z,42.16
2018-08-11T08:20:14.008Z,43.07
2018-08-11T08:23:38.689Z,42.77
2018-08-11T08:27:03.431Z,43.24
2018-08-11T08:30:28.077Z,43.58
2018-08-11T08:33:52.756Z,43.80
2018-08-11T08:37:17.413Z,43.75
2018-08-11T08:40:42.116Z,43.75
2018-08-11T08:44:06.940Z,42.43
2018-08-11T08:47:32.084Z,42.78
2018-08-11T08:50:56.730Z,42.42
2018-08-11T08:54:21.395Z,42.62
2018-08-11T08:57:46.015Z,42.58
2018-08-11T09:01:10.657Z,43.14
2018-08-11T09:04:35.335Z,43.59
2018-08-11T09:08:00.071Z,43.95
2018-08-11T09:11:24.743Z,43.39
2018-08-11T09:14:49.480Z,43.76
2018-08-11T09:18:14.145Z,44.51
2018-08-11T09:21:38.902Z,42.75
2018-08-11T09:25:03.673Z,42.50
2018-08-11T09:28:28.396Z,41.71
2018-08-11T09:31:53.003Z,42.40
2018-08-11T09:35:17.659Z,42.35
2018-08-11T09:38:42.337Z,41.94
2018-08-11T09:42:07.016Z,41.31
2018-08-11T09:45:31.739Z,42.10
2018-08-11T09:48:56.412Z,42.19
2018-08-11T09:52:21.186Z,42.45
2018-08-11T09:55:47.009Z,42.96
2018-08-11T09:59:11.714Z,42.97
2018-08-11T10:02:36.342Z,42.36
2018-08-11T10:06:01.009Z,42.17
2018-08-11T10:09:25.706Z,42.26
2018-08-11T10:12:50.408Z,41.94
2018-08-11T10:16:15.100Z,43.31
2018-08-11T10:19:39.745Z,42.04
2018-08-11T10:23:04.496Z,41.10
2018-08-11T10:26:29.177Z,41.49
2018-08-11T10:29:53.904Z,39.78
2018-08-11T10:33:18.639Z,40.96
2018-08-11T10:36:43.311Z,40.33
2018-08-11T10:40:08.242Z,41.32
2018-08-11T10:43:32.966Z,40.48
2018-08-11T10:48:22.068Z,40.48
2018-08-11T10:51:46.737Z,41.43
2018-08-11T10:55:11.436Z,38.82
2018-08-11T10:58:36.101Z,40.47
2018-08-11T11:02:00.745Z,38.54
2018-08-11T11:05:25.375Z,37.98
2018-08-11T11:08:50.038Z,39.20
2018-08-11T11:12:14.861Z,38.24
2018-08-11T11:15:39.498Z,37.22
2018-08-11T11:19:04.196Z,38.46
2018-08-11T11:22:28.985Z,38.06
2018-08-11T11:25:53.707Z,38.55
2018-08-11T11:29:18.512Z,37.72
2018-08-11T11:32:43.276Z,37.86
2018-08-11T11:36:07.918Z,37.47
2018-08-11T11:39:32.659Z,36.97
2018-08-11T11:42:57.319Z,37.22
2018-08-11T11:46:22.005Z,36.77
2018-08-11T11:49:46.610Z,37.76
2018-08-11T11:53:11.367Z,37.27
2018-08-11T11:56:36.105Z,36.12
2018-08-11T12:00:00.784Z,36.55
2018-08-11T12:03:25.417Z,36.87
2018-08-11T12:06:50.116Z,36.71
2018-08-11T12:10:14.847Z,36.69
2018-08-11T12:13:39.468Z,36.71
2018-08-11T12:17:04.223Z,36.00
2018-08-11T12:20:28.942Z,35.20
2018-08-11T12:23:53.599Z,35.65
2018-08-11T12:27:18.213Z,36.26
2018-08-11T12:30:42.912Z,35.62
2018-08-11T12:34:07.582Z,35.06
2018-08-11T12:37:32.315Z,35.39
2018-08-11T12:40:57.021Z,34.94
2018-08-11T12:44:21.637Z,35.18
2018-08-11T12:47:46.444Z,35.20
2018-08-11T12:51:11.158Z,35.28
2018-08-11T12:54:35.789Z,34.92
2018-08-11T12:58:00.427Z,35.27
2018-08-11T13:01:25.105Z,35.39
2018-08-11T13:04:49.909Z,34.77
2018-08-11T13:08:14.556Z,36.42
2018-08-11T13:11:39.283Z,36.38
2018-08-11T13:15:04.032Z,34.35
2018-08-11T13:18:28.676Z,34.56
2018-08-11T13:21:53.303Z,31.97
2018-08-11T13:25:17.956Z,31.73
2018-08-11T13:28:42.660Z,31.10
2018-08-11T13:32:07.411Z,31.13
2018-08-11T13:35:32.099Z,30.76
2018-08-11T13:38:56.742Z,30.37
2018-08-11T13:42:21.722Z,29.66
2018-08-11T13:45:46.352Z,32.37
2018-08-11T13:49:11.176Z,31.94
2018-08-11T13:52:35.807Z,31.32
2018-08-11T13:56:00.540Z,33.50
2018-08-11T13:59:25.184Z,33.91
2018-08-11T14:02:50.135Z,34.04
2018-08-11T14:06:14.805Z,34.53
2018-08-11T14:09:39.471Z,33.11
2018-08-11T14:13:04.148Z,32.11
2018-08-11T14:16:28.768Z,32.40
2018-08-11T14:19:53.391Z,30.53
2018-08-11T14:23:18.074Z,31.54
2018-08-11T14:26:42.731Z,32.43
2018-08-11T14:30:10.349Z,30.46
2018-08-11T14:33:34.997Z,30.46
2018-08-11T14:36:59.670Z,31.58
2018-08-11T14:40:31.081Z,30.34
2018-08-11T14:44:01.543Z,32.28
2018-08-11T14:47:26.187Z,32.53
2018-08-11T14:50:50.809Z,30.26
2018-08-11T14:54:15.433Z,30.99
2018-08-11T14:57:40.117Z,31.02
2018-08-11T15:01:05.718Z,29.87
2018-08-11T15:04:30.352Z,31.03
2018-08-11T15:07:54.949Z,29.60
2018-08-11T15:11:19.662Z,29.13
2018-08-11T15:14:44.267Z,30.73
2018-08-11T15:18:08.979Z,31.32
2018-08-11T15:21:33.708Z,30.93
2018-08-11T15:24:58.568Z,29.40
2018-08-11T15:28:23.204Z,29.65
2018-08-11T15:31:47.788Z,28.76
2018-08-11T15:35:12.513Z,29.75
2018-08-11T15:38:37.213Z,30.24
2018-08-11T15:42:01.835Z,28.88
2018-08-11T15:45:26.493Z,28.83
2018-08-11T15:48:51.146Z,29.61
2018-08-11T15:52:16.125Z,28.39
2018-08-11T15:55:41.088Z,27.60
2018-08-11T15:59:05.799Z,28.67
2018-08-11T16:02:30.498Z,30.10
2018-08-11T16:05:55.153Z,30.09
2018-08-11T16:09:19.833Z,27.68
2018-08-11T16:12:44.517Z,27.94
2018-08-11T16:16:09.374Z,27.65
2018-08-11T16:19:34.088Z,26.40
2018-08-11T16:22:58.760Z,29.10
2018-08-11T16:26:23.447Z,27.03
2018-08-11T16:29:48.117Z,27.89
2018-08-11T16:33:12.782Z,26.89
2018-08-11T16:36:37.551Z,27.52
2018-08-11T16:40:02.386Z,26.43
2018-08-11T16:43:27.199Z,27.23
2018-08-11T16:46:51.976Z,26.90
2018-08-11T16:50:16.684Z,27.39
2018-08-11T16:53:41.345Z,27.40
2018-08-11T16:57:06.067Z,28.55
2018-08-11T17:00:30.705Z,27.44
2018-08-11T17:03:55.396Z,28.02
2018-08-11T17:07:20.069Z,28.64
2018-08-11T17:10:44.737Z,28.17
2018-08-11T17:14:09.395Z,29.08
2018-08-11T17:17:34.035Z,27.69
2018-08-11T17:20:59.507Z,30.65
2018-08-11T17:24:24.105Z,28.69
2018-08-11T17:27:48.738Z,29.11
2018-08-11T17:31:13.347Z,29.72
2018-08-11T17:34:37.991Z,28.47
2018-08-11T17:38:02.701Z,28.81
2018-08-11T17:41:27.380Z,29.81
2018-08-11T17:44:52.078Z,28.80
2018-08-11T17:48:16.749Z,28.84
2018-08-11T17:51:41.365Z,28.58
2018-08-11T17:55:06.158Z,30.27
2018-08-11T17:58:30.781Z,31.20
2018-08-11T18:01:55.568Z,31.68
2018-08-11T18:05:20.206Z,32.45
2018-08-11T18:08:44.871Z,33.34
2018-08-11T18:12:09.660Z,32.95
2018-08-11T18:15:34.388Z,33.25
2018-08-11T18:18:59.011Z,34.83
2018-08-11T18:22:23.668Z,34.19
2018-08-11T18:25:48.363Z,33.68
2018-08-11T18:29:13.083Z,33.55
2018-08-11T18:32:37.765Z,34.55
2018-08-11T18:36:02.449Z,35.10
2018-08-11T18:39:27.132Z,36.44
2018-08-11T18:42:51.765Z,36.13
2018-08-11T18:46:16.418Z,36.56
2018-08-11T18:49:41.077Z,37.07
2018-08-11T18:53:05.799Z,37.20
2018-08-11T18:56:30.609Z,37.89
2018-08-11T18:59:55.386Z,36.82
2018-08-11T19:03:20.150Z,37.08
2018-08-11T19:06:44.919Z,38.36
2018-08-11T19:10:11.082Z,37.55
2018-08-11T19:13:35.735Z,38.95
2018-08-11T19:17:00.424Z,37.75
2018-08-11T19:20:25.129Z,37.61
2018-08-11T19:23:49.837Z,38.01
2018-08-11T19:27:14.471Z,37.85
2018-08-11T19:30:39.230Z,39.47
2018-08-11T19:34:03.896Z,38.26
2018-08-11T19:37:28.557Z,38.28
2018-08-11T19:40:53.235Z,39.98
2018-08-11T19:44:17.878Z,38.50
2018-08-11T19:47:42.716Z,39.35
2018-08-11T19:51:07.732Z,41.02
2018-08-11T19:54:32.461Z,40.74
2018-08-11T19:57:57.196Z,42.93
2018-08-11T20:01:22.149Z,42.10
2018-08-11T20:04:46.851Z,42.24
2018-08-11T20:08:11.547Z,41.24
2018-08-11T20:11:36.209Z,42.46
2018-08-11T20:15:00.819Z,44.14
2018-08-11T20:18:25.513Z,40.71
2018-08-11T20:21:50.188Z,40.54
2018-08-11T20:25:14.899Z,39.80
2018-08-11T20:28:39.594Z,40.40
2018-08-11T20:32:04.294Z,39.87
2018-08-11T20:35:29.080Z,40.28
2018-08-11T20:38:53.750Z,40.55
2018-08-11T20:42:18.523Z,40.90
2018-08-11T20:45:43.147Z,40.84
2018-08-11T20:49:08.031Z,40.48
2018-08-11T20:52:32.731Z,40.17
2018-08-11T20:55:57.372Z,40.40
2018-08-11T20:59:22.092Z,40.20
2018-08-11T21:02:46.823Z,40.78
2018-08-11T21:06:11.449Z,40.35
2018-08-11T21:09:36.812Z,41.55
2018-08-11T21:13:01.517Z,42.99
2018-08-11T21:16:26.129Z,44.74
2018-08-11T21:19:50.773Z,43.93
2018-08-11T21:23:15.411Z,43.79
2018-08-11T21:26:40.137Z,46.14
2018-08-11T21:30:06.375Z,46.15
2018-08-11T21:33:31.009Z,47.19
2018-08-11T21:36:55.690Z,45.11
2018-08-11T21:40:20.351Z,45.11
2018-08-11T21:43:45.709Z,45.39
2018-08-11T21:47:10.497Z,42.04
2018-08-11T21:50:35.263Z,43.90
2018-08-11T21:53:59.944Z,42.43
2018-08-11T21:57:25.237Z,41.94
2018-08-11T22:00:55.206Z,45.00
2018-08-11T22:04:20.202Z,43.06
2018-08-11T22:07:44.915Z,46.63
2018-08-11T22:11:09.717Z,42.81
2018-08-11T22:14:34.480Z,43.15
2018-08-11T22:17:59.120Z,42.54
2018-08-11T22:21:24.779Z,43.01
2018-08-11T22:24:49.507Z,42.66
2018-08-11T22:28:15.326Z,44.39
2018-08-11T22:31:39.996Z,42.32
2018-08-11T22:35:05.359Z,42.80
2018-08-11T22:38:30.080Z,43.05
2018-08-11T22:41:54.745Z,47.31
2018-08-11T22:45:19.515Z,42.75
2018-08-11T22:48:44.177Z,44.12
2018-08-11T22:52:08.884Z,42.85
2018-08-11T22:55:33.594Z,45.05
2018-08-11T22:58:58.281Z,48.73
2018-08-11T23:02:22.928Z,47.82
2018-08-11T23:05:47.786Z,47.44
2018-08-11T23:09:12.447Z,45.91
2018-08-11T23:12:37.108Z,42.69
2018-08-11T23:16:01.765Z,43.84
2018-08-11T23:19:26.432Z,47.44
2018-08-11T23:22:51.159Z,48.26
2018-08-11T23:26:15.899Z,46.70
2018-08-11T23:29:40.523Z,44.16
2018-08-11T23:33:05.502Z,42.98
2018-08-11T23:36:30.169Z,43.66
2018-08-11T23:39:54.883Z,41.91
2018-08-11T23:43:19.588Z,43.08
2018-08-11T23:46:44.272Z,44.75
2018-08-11T23:50:09.723Z,43.51
2018-08-11T23:53:34.398Z,43.00
2018-08-11T23:56:59.050Z,43.75
